createdAt,value
2023-02-05T00:00:20.985Z,308.40
2023-02-05T00:02:49.876Z,330.75
2023-02-05T00:05:18.337Z,319.25
2023-02-05T00:07:46.885Z,325.88
2023-02-05T00:10:15.349Z,293.10
2023-02-05T00:12:44.644Z,294.30
2023-02-05T00:15:13.345Z,302.75
2023-02-05T00:17:43.280Z,307.40
2023-02-05T00:20:12.803Z,310.88
2023-02-05T00:22:41.527Z,307.58
2023-02-05T00:25:10.238Z,315.00
2023-02-05T00:27:38.743Z,366.08
2023-02-05T00:30:08.581Z,321.27
2023-02-05T00:32:37.675Z,322.30
2023-02-05T00:35:07.811Z,315.73
2023-02-05T00:37:36.206Z,307.65
2023-02-05T00:40:05.345Z,315.83
2023-02-05T00:42:34.419Z,323.27
2023-02-05T00:45:04.133Z,311.40
2023-02-05T00:47:32.831Z,301.23
2023-02-05T00:50:01.360Z,319.08
2023-02-05T00:52:31.161Z,357.48
2023-02-05T00:54:59.731Z,341.08
2023-02-05T00:57:28.240Z,313.92
2023-02-05T00:59:56.651Z,356.83
2023-02-05T01:02:25.330Z,365.35
2023-02-05T01:04:54.044Z,367.90
2023-02-05T01:07:22.558Z,341.73
2023-02-05T01:09:52.486Z,378.52
2023-02-05T01:12:20.945Z,366.02
2023-02-05T01:14:49.532Z,343.60
2023-02-05T01:17:18.313Z,375.88
2023-02-05T01:19:46.790Z,375.40
2023-02-05T01:22:15.958Z,371.38
2023-02-05T01:24:44.413Z,341.02
2023-02-05T01:27:14.402Z,374.58
2023-02-05T01:29:42.820Z,372.73
2023-02-05T01:32:11.300Z,360.58
2023-02-05T01:34:39.688Z,399.27
2023-02-05T01:37:08.274Z,359.75
2023-02-05T01:39:37.496Z,372.95
2023-02-05T01:42:07.604Z,383.90
2023-02-05T01:44:39.825Z,358.17
2023-02-05T01:47:08.377Z,347.70
2023-02-05T01:49:39.602Z,496.92
2023-02-05T01:52:12.809Z,363.55
2023-02-05T01:54:44.900Z,378.85
2023-02-05T01:57:15.969Z,342.98
2023-02-05T01:59:46.197Z,397.27
2023-02-05T02:02:14.900Z,363.40
2023-02-05T02:04:45.704Z,390.88
2023-02-05T02:07:15.446Z,382.73
2023-02-05T02:09:45.681Z,364.80
2023-02-05T02:12:15.725Z,352.88
2023-02-05T02:14:48.832Z,381.63
2023-02-05T02:17:18.435Z,388.55
2023-02-05T02:19:54.640Z,372.40
2023-02-05T02:22:43.239Z,376.75
2023-02-05T02:25:34.997Z,423.15
2023-02-05T02:28:08.852Z,487.65
2023-02-05T02:30:41.184Z,426.43
2023-02-05T02:33:15.005Z,434.33
2023-02-05T02:35:48.515Z,396.60
2023-02-05T02:38:22.332Z,414.08
2023-02-05T02:40:53.969Z,368.65
2023-02-05T02:43:27.903Z,393.63
2023-02-05T02:45:59.707Z,398.05
2023-02-05T02:48:30.191Z,371.80
2023-02-05T02:50:58.873Z,380.73
2023-02-05T02:53:29.615Z,409.25
2023-02-05T02:55:58.422Z,393.90
2023-02-05T02:58:32.792Z,393.25
2023-02-05T03:01:03.326Z,420.10
2023-02-05T03:03:34.266Z,384.95
2023-02-05T03:06:05.378Z,391.10
2023-02-05T03:08:37.826Z,393.10
2023-02-05T03:11:10.266Z,413.48
2023-02-05T03:13:40.286Z,399.52
2023-02-05T03:16:09.243Z,421.08
2023-02-05T03:18:38.345Z,404.25
2023-02-05T03:21:09.688Z,388.27
2023-02-05T03:23:38.105Z,514.38
2023-02-05T03:26:06.784Z,384.63
2023-02-05T03:28:35.320Z,419.90
2023-02-05T03:31:09.506Z,432.40
2023-02-05T03:33:44.610Z,440.75
2023-02-05T03:36:19.206Z,430.60
2023-02-05T03:38:59.604Z,400.30
2023-02-05T03:41:58.310Z,434.23
2023-02-05T03:44:56.805Z,405.63
2023-02-05T03:47:35.302Z,402.17
2023-02-05T03:50:11.132Z,424.77
2023-02-05T03:52:43.418Z,414.65
2023-02-05T03:55:15.331Z,452.17
2023-02-05T03:57:47.939Z,442.77
2023-02-05T04:00:17.693Z,466.50
2023-02-05T04:02:47.768Z,452.75
2023-02-05T04:05:16.389Z,448.00
2023-02-05T04:07:44.863Z,476.60
2023-02-05T04:10:13.518Z,458.40
2023-02-05T04:12:42.032Z,419.02
2023-02-05T04:15:11.090Z,498.95
2023-02-05T04:17:44.044Z,499.88
2023-02-05T04:20:14.213Z,458.63
2023-02-05T04:22:44.227Z,473.30
2023-02-05T04:25:12.688Z,485.63
2023-02-05T04:27:41.156Z,480.02
2023-02-05T04:30:10.737Z,511.50
2023-02-05T04:32:39.325Z,426.85
2023-02-05T04:35:08.568Z,494.52
2023-02-05T04:37:38.749Z,441.23
2023-02-05T04:40:08.963Z,491.48
2023-02-05T04:42:37.404Z,484.73
2023-02-05T04:45:06.879Z,505.35
2023-02-05T04:47:35.553Z,484.85
2023-02-05T04:50:04.080Z,532.25
2023-02-05T04:52:32.731Z,512.67
2023-02-05T04:55:02.645Z,536.40
2023-02-05T04:57:32.219Z,464.08
2023-02-05T05:00:00.632Z,527.25
2023-02-05T05:02:29.258Z,532.08
2023-02-05T05:04:57.814Z,526.88
2023-02-05T05:07:26.716Z,445.13
2023-02-05T05:09:55.150Z,471.73
2023-02-05T05:12:25.232Z,524.90
2023-02-05T05:14:53.630Z,498.00
2023-02-05T05:17:23.798Z,490.90
2023-02-05T05:19:52.277Z,468.88
2023-02-05T05:22:20.881Z,470.08
2023-02-05T05:24:49.462Z,470.88
2023-02-05T05:27:18.868Z,499.25
2023-02-05T05:29:49.374Z,507.17
2023-02-05T05:32:18.014Z,500.40
2023-02-05T05:34:46.736Z,403.77
2023-02-05T05:37:16.077Z,476.92
2023-02-05T05:40:01.794Z,490.75
2023-02-05T05:42:47.646Z,437.38
2023-02-05T05:45:17.634Z,443.25
2023-02-05T05:47:46.091Z,478.73
2023-02-05T05:50:14.597Z,487.13
2023-02-05T05:52:43.146Z,443.58
2023-02-05T05:55:11.826Z,488.65
2023-02-05T05:57:40.179Z,476.60
2023-02-05T06:00:09.706Z,490.65
2023-02-05T06:02:44.276Z,434.58
2023-02-05T06:07:41.111Z,451.92
2023-02-05T06:10:10.296Z,475.35
2023-02-05T06:12:38.676Z,447.40
2023-02-05T06:15:07.994Z,457.75
2023-02-05T06:17:36.389Z,479.00
2023-02-05T06:20:07.018Z,470.52
2023-02-05T06:22:35.794Z,491.33
2023-02-05T06:25:04.525Z,428.80
2023-02-05T06:27:33.169Z,505.77
2023-02-05T06:30:01.722Z,470.58
2023-02-05T06:32:30.352Z,455.50
2023-02-05T06:34:58.902Z,490.15
2023-02-05T06:37:46.087Z,463.50
2023-02-05T06:40:18.758Z,481.23
2023-02-05T06:42:47.578Z,463.73
2023-02-05T06:45:16.453Z,420.60
2023-02-05T06:47:45.160Z,447.45
2023-02-05T06:50:15.561Z,445.05
2023-02-05T06:52:45.568Z,474.02
2023-02-05T06:55:14.413Z,491.85
2023-02-05T06:57:42.876Z,501.40
2023-02-05T07:00:13.124Z,454.77
2023-02-05T07:02:41.918Z,475.73
2023-02-05T07:05:11.169Z,447.30
2023-02-05T07:07:42.213Z,497.65
2023-02-05T07:10:18.589Z,413.15
2023-02-05T07:12:47.351Z,473.67
2023-02-05T07:15:16.180Z,478.20
2023-02-05T07:17:46.098Z,463.60
2023-02-05T07:20:17.121Z,445.88
2023-02-05T07:22:56.242Z,438.50
2023-02-05T07:25:27.050Z,482.48
2023-02-05T07:27:55.898Z,431.30
2023-02-05T07:30:24.480Z,414.65
2023-02-05T07:32:53.712Z,431.27
2023-02-05T07:35:22.983Z,398.25
2023-02-05T07:37:51.653Z,408.95
2023-02-05T07:40:20.374Z,420.35
2023-02-05T07:42:52.475Z,411.55
2023-02-05T07:46:16.544Z,403.23
2023-02-05T07:48:47.752Z,429.48
2023-02-05T07:51:23.492Z,368.05
2023-02-05T07:53:54.413Z,419.45
2023-02-05T07:56:23.366Z,376.98
2023-02-05T07:58:53.377Z,380.42
2023-02-05T08:01:22.370Z,391.63
2023-02-05T08:03:54.149Z,380.27
2023-02-05T08:06:22.735Z,374.85
2023-02-05T08:08:54.070Z,405.13
2023-02-05T08:11:22.930Z,396.38
2023-02-05T08:13:53.349Z,374.73
2023-02-05T08:16:24.033Z,363.10
2023-02-05T08:18:52.997Z,364.50
2023-02-05T08:21:22.509Z,386.95
2023-02-05T08:23:52.856Z,336.48
2023-02-05T08:26:25.508Z,369.80
2023-02-05T08:28:56.682Z,324.40
2023-02-05T08:31:25.229Z,314.50
2023-02-05T08:33:56.652Z,298.98
2023-02-05T08:36:33.278Z,327.55
2023-02-05T08:39:20.067Z,290.23
2023-02-05T08:45:30.104Z,428.02
2023-02-05T08:47:59.853Z,309.73
2023-02-05T08:50:28.280Z,253.85
2023-02-05T08:52:56.769Z,316.90
2023-02-05T08:55:25.213Z,277.52
2023-02-05T08:57:53.615Z,263.83
2023-02-05T09:00:22.132Z,323.38
2023-02-05T09:02:50.838Z,409.08
2023-02-05T09:05:20.692Z,310.63
2023-02-05T09:07:49.160Z,322.73
2023-02-05T09:10:18.534Z,288.98
2023-02-05T09:12:48.922Z,257.48
2023-02-05T09:15:17.293Z,319.45
2023-02-05T09:17:46.341Z,331.75
2023-02-05T09:20:14.837Z,313.88
2023-02-05T09:22:44.590Z,302.63
2023-02-05T09:25:13.209Z,318.30
2023-02-05T09:27:41.749Z,327.08
2023-02-05T09:30:11.515Z,325.63
2023-02-05T09:32:39.855Z,332.13
2023-02-05T09:35:08.833Z,337.80
2023-02-05T09:37:39.220Z,374.23
2023-02-05T09:40:20.542Z,394.90
2023-02-05T09:42:58.327Z,382.35
2023-02-05T09:45:44.513Z,438.98
2023-02-05T09:48:30.528Z,533.47
2023-02-05T09:50:59.646Z,442.95
2023-02-05T09:53:33.387Z,535.40
2023-02-05T09:56:04.027Z,482.43
2023-02-05T09:58:35.023Z,511.80
2023-02-05T10:01:05.257Z,682.40
2023-02-05T10:03:38.426Z,549.90
2023-02-05T10:06:21.277Z,596.67
2023-02-05T10:08:58.346Z,482.75
2023-02-05T10:11:33.130Z,498.10
2023-02-05T10:14:09.805Z,514.80
2023-02-05T10:16:49.919Z,502.33
2023-02-05T10:19:47.828Z,511.55
2023-02-05T10:22:18.889Z,511.02
2023-02-05T10:25:12.094Z,522.28
2023-02-05T10:27:49.638Z,542.10
2023-02-05T10:30:22.908Z,486.70
2023-02-05T10:32:58.202Z,531.05
2023-02-05T10:35:31.542Z,526.88
2023-02-05T10:37:59.977Z,451.13
2023-02-05T10:40:32.033Z,445.98
2023-02-05T10:43:08.811Z,461.83
2023-02-05T10:45:37.581Z,456.35
2023-02-05T10:48:29.477Z,502.40
2023-02-05T10:51:01.420Z,493.85
2023-02-05T10:53:30.999Z,443.60
2023-02-05T10:56:00.652Z,424.05
2023-02-05T10:58:46.993Z,420.35
2023-02-05T11:01:17.835Z,533.25
2023-02-05T11:03:52.676Z,384.52
2023-02-05T11:06:22.223Z,345.17
2023-02-05T11:08:50.610Z,341.48
2023-02-05T11:11:25.035Z,307.50
2023-02-05T11:13:56.735Z,296.55
2023-02-05T11:16:25.752Z,308.27
2023-02-05T11:18:59.327Z,487.38
2023-02-05T11:21:48.604Z,347.08
2023-02-05T11:24:26.185Z,367.35
2023-02-05T11:27:44.126Z,307.67
2023-02-05T11:30:51.778Z,338.65
2023-02-05T11:33:28.279Z,394.98
2023-02-05T11:35:58.666Z,304.92
2023-02-05T11:38:33.352Z,355.13
2023-02-05T11:43:35.919Z,400.15
2023-02-05T11:46:07.761Z,347.73
2023-02-05T11:48:40.602Z,358.67
2023-02-05T11:51:10.996Z,339.05
2023-02-05T11:53:43.802Z,418.88
2023-02-05T11:56:13.595Z,355.42
2023-02-05T11:58:42.380Z,344.52
2023-02-05T12:01:25.814Z,505.17
2023-02-05T12:04:02.371Z,353.55
2023-02-05T12:06:36.942Z,360.02
2023-02-05T12:09:05.876Z,493.77
2023-02-05T12:12:03.809Z,432.52
2023-02-05T12:14:40.885Z,353.13
2023-02-05T12:17:48.539Z,323.23
2023-02-05T12:20:22.748Z,469.08
2023-02-05T12:23:08.822Z,328.40
2023-02-05T12:25:43.864Z,336.02
2023-02-05T12:28:24.072Z,368.73
2023-02-05T12:30:59.943Z,313.55
2023-02-05T12:33:53.365Z,291.77
2023-02-05T12:36:43.077Z,318.88
2023-02-05T12:39:22.986Z,385.23
2023-02-05T12:41:58.995Z,611.60
2023-02-05T12:44:36.220Z,435.23
2023-02-05T12:47:13.897Z,385.58
2023-02-05T12:50:06.588Z,436.08
2023-02-05T12:52:53.723Z,433.73
2023-02-05T12:55:33.430Z,515.05
2023-02-05T12:58:04.623Z,459.73
2023-02-05T13:00:38.369Z,466.77
2023-02-05T13:03:11.259Z,476.40
2023-02-05T13:05:45.450Z,471.55
2023-02-05T13:08:16.846Z,488.40
2023-02-05T13:10:51.767Z,565.33
2023-02-05T13:13:25.271Z,702.30
2023-02-05T13:15:59.658Z,474.83
2023-02-05T13:18:30.415Z,471.77
2023-02-05T13:21:21.789Z,508.77
2023-02-05T13:24:08.620Z,514.33
2023-02-05T13:26:58.261Z,562.88
2023-02-05T13:29:30.195Z,609.78
2023-02-05T13:32:10.628Z,507.00
2023-02-05T13:34:43.781Z,510.88
2023-02-05T13:37:34.086Z,616.92
2023-02-05T13:40:20.870Z,520.92
2023-02-05T13:43:10.902Z,527.78
2023-02-05T13:46:07.028Z,544.60
2023-02-05T13:49:08.015Z,523.10
2023-02-05T13:51:58.643Z,579.90
2023-02-05T13:54:59.218Z,548.88
2023-02-05T13:57:54.551Z,635.05
2023-02-05T14:02:56.459Z,605.45
2023-02-05T14:05:30.845Z,612.95
2023-02-05T14:08:03.301Z,633.33
2023-02-05T14:10:35.672Z,615.85
2023-02-05T14:13:13.642Z,627.53
2023-02-05T14:15:44.150Z,635.45
2023-02-05T14:18:14.388Z,634.33
2023-02-05T14:20:45.627Z,627.58
2023-02-05T14:23:16.850Z,728.67
2023-02-05T14:26:11.904Z,597.85
2023-02-05T14:28:51.535Z,536.65
2023-02-05T14:31:48.973Z,594.35
2023-02-05T14:34:45.817Z,631.72
2023-02-05T14:37:37.635Z,648.33
2023-02-05T14:40:31.477Z,580.08
2023-02-05T14:43:10.606Z,622.45
2023-02-05T14:45:45.113Z,689.10
2023-02-05T14:48:21.914Z,650.60
2023-02-05T14:51:05.815Z,617.67
2023-02-05T14:53:35.431Z,626.45
2023-02-05T14:56:05.082Z,620.15
2023-02-05T14:58:38.410Z,595.95
2023-02-05T15:01:41.684Z,725.85
2023-02-05T15:04:25.355Z,576.28
2023-02-05T15:06:54.103Z,604.70
2023-02-05T15:09:26.214Z,586.08
2023-02-05T15:12:06.029Z,620.25
2023-02-05T15:14:45.269Z,517.35
2023-02-05T15:17:47.203Z,586.83
2023-02-05T15:20:23.825Z,542.28
2023-02-05T15:22:58.591Z,543.13
2023-02-05T15:25:34.675Z,679.00
2023-02-05T15:28:05.122Z,622.55
2023-02-05T15:30:53.174Z,633.90
2023-02-05T15:33:34.435Z,560.75
2023-02-05T15:36:08.719Z,749.67
2023-02-05T15:38:43.322Z,642.38
2023-02-05T15:41:13.711Z,567.85
2023-02-05T15:43:42.287Z,616.80
2023-02-05T15:46:17.628Z,529.42
2023-02-05T15:48:46.601Z,626.08
2023-02-05T15:51:22.172Z,606.85
2023-02-05T15:53:52.085Z,612.72
2023-02-05T15:56:25.221Z,633.60
2023-02-05T15:58:56.160Z,664.13
2023-02-05T16:01:28.108Z,607.15
2023-02-05T16:03:56.623Z,618.80
2023-02-05T16:06:26.882Z,540.45
2023-02-05T16:20:53.927Z,593.42
2023-02-05T16:23:26.268Z,610.80
2023-02-05T16:25:59.031Z,625.03
2023-02-05T16:28:36.436Z,642.60
2023-02-05T16:31:06.947Z,640.65
2023-02-05T16:33:39.399Z,628.35
2023-02-05T16:36:15.520Z,648.45
2023-02-05T16:38:44.096Z,744.45
2023-02-05T16:41:26.203Z,622.55
2023-02-05T16:43:55.800Z,591.45
2023-02-05T16:46:29.801Z,618.47
2023-02-05T16:49:01.223Z,640.30
2023-02-05T16:51:37.626Z,577.88
2023-02-05T16:54:27.861Z,640.22
2023-02-05T16:57:02.526Z,367.63
2023-02-05T17:02:19.858Z,490.13
2023-02-05T17:04:52.587Z,411.23
2023-02-05T17:07:31.519Z,519.20
2023-02-05T17:10:28.328Z,429.45
2023-02-05T17:12:58.578Z,539.03
2023-02-05T17:15:44.975Z,499.60
2023-02-05T21:36:12.937Z,523.95
2023-02-05T21:38:42.537Z,458.75
2023-02-05T21:41:11.957Z,462.02
2023-02-05T21:43:40.754Z,508.00
2023-02-05T21:46:11.123Z,482.73
2023-02-05T21:48:40.169Z,454.40
2023-02-05T21:51:11.485Z,435.98
2023-02-05T21:53:48.282Z,599.25
2023-02-05T21:56:23.956Z,483.08
2023-02-05T21:58:52.648Z,403.67
2023-02-05T22:01:23.978Z,463.60
2023-02-05T22:03:54.187Z,431.83
2023-02-05T22:06:26.192Z,418.40
2023-02-05T22:08:56.472Z,470.80
2023-02-05T22:11:25.656Z,380.83
2023-02-05T22:13:56.008Z,478.38
2023-02-05T22:16:26.832Z,407.65
2023-02-05T22:18:55.997Z,430.02
2023-02-05T22:21:28.112Z,411.27
2023-02-05T22:24:02.740Z,463.08
2023-02-05T22:26:34.098Z,477.08
2023-02-05T22:29:04.500Z,544.17
2023-02-05T22:31:33.548Z,483.83
2023-02-05T22:34:02.209Z,523.63
2023-02-05T22:36:33.898Z,481.33
2023-02-05T22:39:02.937Z,522.42
2023-02-05T22:41:33.566Z,482.02
2023-02-05T22:44:04.132Z,526.22
2023-02-05T22:46:34.673Z,439.70
2023-02-05T22:49:04.405Z,370.38
2023-02-05T22:51:36.184Z,535.33
2023-02-05T22:54:05.981Z,473.67
2023-02-05T22:56:35.394Z,410.00
2023-02-05T22:59:04.220Z,392.55
2023-02-05T23:01:35.802Z,426.52
2023-02-05T23:04:06.240Z,458.70
2023-02-05T23:06:38.202Z,487.23
2023-02-05T23:09:09.306Z,431.83
2023-02-05T23:11:38.486Z,551.67
2023-02-05T23:14:08.176Z,465.48
2023-02-05T23:16:38.864Z,378.95
2023-02-05T23:19:10.507Z,474.65
2023-02-05T23:21:41.564Z,460.30
2023-02-05T23:24:10.702Z,510.17
2023-02-05T23:26:42.278Z,467.88
2023-02-05T23:29:11.674Z,402.30
2023-02-05T23:31:40.364Z,429.63
2023-02-05T23:34:09.023Z,430.08
2023-02-05T23:36:39.347Z,522.97
2023-02-05T23:39:08.102Z,591.50
2023-02-05T23:41:36.956Z,584.58
2023-02-05T23:44:07.719Z,441.83
2023-02-05T23:46:37.635Z,327.10
2023-02-05T23:49:06.159Z,400.77
2023-02-05T23:51:34.726Z,347.08
2023-02-05T23:54:04.973Z,322.85
2023-02-05T23:56:33.549Z,390.20
2023-02-05T23:59:02.886Z,366.38
